CheckWX is a tool to help pilots better visualize weather data.  It is not intended as a substitute for an official pre-flight weather briefing.

00:52:15 UTC

FQPB METAR
Pemba Airport
Pemba / Porto Amelia, Mozambique
Current

11 hours ago

FQPB 231400Z 12008KT 090V150 9999 FEW020 FEW025CB BKN/// 29/25 Q1010 RMK CB TO SW/W/NW
Observed
Mar-23 @ 14:00 UTC
Wind
  • 120° at 8 KTS
Visibility
10,000+ meters
Flight Rules
VFR
Cloud Levels
  • Few at 2,000' AGL
  • Few at 2,500' AGL
Temperature
29°C / 84°F
Dewpoint
25°C / 77°F
Humidity
79%
Altimeter
29.82" Hg
Pressure
1009.92 hPa
Previous

12 hours ago

FQPB 231300Z 12007KT 070V160 9999 FEW020 FEW025CB BKN/// 29/25 Q1010 RMK CB TO W/NW/N
Observed
Mar-23 @ 13:00 UTC
Wind
  • 120° at 7 KTS
Visibility
10,000+ meters
Flight Rules
VFR
Cloud Levels
  • Few at 2,000' AGL
  • Few at 2,500' AGL
Temperature
29°C / 84°F
Dewpoint
25°C / 77°F
Humidity
79%
Altimeter
29.82" Hg
Pressure
1009.92 hPa
Previous

15 hours ago

FQPB 231000Z 06006KT 9999 SCT020 FEW025CB BKN100 30/25 Q1011 RMK CB TO E/NE/W
Observed
Mar-23 @ 10:00 UTC
Wind
  • 060° at 6 KTS
Visibility
10,000+ meters
Flight Rules
VFR
Cloud Levels
  • Scattered at 2,000' AGL
  • Few at 2,500' AGL
  • Broken at 10,000' AGL
Temperature
30°C / 86°F
Dewpoint
25°C / 77°F
Humidity
75%
Altimeter
29.85" Hg
Pressure
1010.92 hPa